KACV/ACV METAR and TAF weather

Enter ICAO airport designator
Station Type Date Time Source
KACV METAR 2022/01/27 22:53 UTC NOAA

KACV 272253Z AUTO 32004KT 10SM CLR 12/05 A3023 RMK AO2 SLP245 T01170050


Station Type Date Time Source
KACV Decoded METAR 2022/01/27 22:53 UTC NOAA

ARCATA/EUREKA ARCATA AIRPORT, CA, United States (KACV) 40-59N 124-06W 67M
Jan 27, 2022 - 05:53 PM EST / 2022.01.27 2253 UTC
Wind: from the NW (320 degrees) at 5 MPH (4 KT):0
Visibility: 10 mile(s):0
Sky conditions: clear
Temperature: 53.1 F (11.7 C)
Dew Point: 41.0 F (5.0 C)
Relative Humidity: 63%
Pressure (altimeter): 30.23 in. Hg (1023 hPa)
ob: KACV 272253Z AUTO 32004KT 10SM CLR 12/05 A3023 RMK AO2 SLP245 T01170050
cycle: 23

Station Type Date Time Source
KACV TAF 2022/01/27 18:22 UTC NOAA

TAF KACV 271720Z 2718/2818 VRB03KT P6SM SKC
FM272000 31004KT 6SM BR FEW004
FM280300 VRB03KT 3SM BR SCT002
FM280900 09003KT P6SM SKC

Example: see airport list